createdAt,value
2022-09-26T00:00:57.908Z,1003.63
2022-09-26T00:01:57.956Z,1003.64
2022-09-26T00:02:57.919Z,1003.61
2022-09-26T00:03:57.807Z,1003.61
2022-09-26T00:04:57.835Z,1003.58
2022-09-26T00:05:57.946Z,1003.59
2022-09-26T00:06:57.808Z,1003.54
2022-09-26T00:07:57.753Z,1003.54
2022-09-26T00:08:57.766Z,1003.48
2022-09-26T00:09:57.775Z,1003.48
2022-09-26T00:10:57.766Z,1003.43
2022-09-26T00:11:57.899Z,1003.39
2022-09-26T00:12:57.799Z,1003.40
2022-09-26T00:13:57.650Z,1003.37
2022-09-26T00:14:57.773Z,1003.34
2022-09-26T00:15:57.646Z,1003.31
2022-09-26T00:16:57.751Z,1003.28
2022-09-26T00:17:57.702Z,1003.25
2022-09-26T00:18:57.662Z,1003.20
2022-09-26T00:19:57.648Z,1003.20
2022-09-26T00:20:57.597Z,1003.22
2022-09-26T00:21:57.569Z,1003.14
2022-09-26T00:22:57.590Z,1003.11
2022-09-26T00:23:57.691Z,1003.09
2022-09-26T00:24:57.640Z,1003.12
2022-09-26T00:25:57.512Z,1003.07
2022-09-26T00:26:57.494Z,1003.02
2022-09-26T00:27:57.545Z,1003.00
2022-09-26T00:28:57.488Z,1002.98
2022-09-26T00:29:57.554Z,1002.97
2022-09-26T00:30:57.552Z,1002.97
2022-09-26T00:31:57.486Z,1002.94
2022-09-26T00:32:57.474Z,1002.94
2022-09-26T00:33:57.473Z,1002.94
2022-09-26T00:34:57.490Z,1002.89
2022-09-26T00:35:57.472Z,1002.84
2022-09-26T00:36:57.517Z,1002.84
2022-09-26T00:37:57.393Z,1002.87
2022-09-26T00:38:57.366Z,1002.82
2022-09-26T00:39:57.445Z,1002.80
2022-09-26T00:40:57.490Z,1002.79
2022-09-26T00:41:57.544Z,1002.78
2022-09-26T00:42:57.424Z,1002.78
2022-09-26T00:43:57.383Z,1002.80
2022-09-26T00:44:57.334Z,1002.78
2022-09-26T00:45:57.342Z,1002.76
2022-09-26T00:46:57.380Z,1002.75
2022-09-26T00:47:57.256Z,1002.73
2022-09-26T00:48:57.230Z,1002.66
2022-09-26T00:49:57.375Z,1002.70
2022-09-26T00:50:57.316Z,1002.69
2022-09-26T00:51:57.217Z,1002.71
2022-09-26T00:52:57.195Z,1002.67
2022-09-26T00:53:57.238Z,1002.65
2022-09-26T00:54:57.163Z,1002.61
2022-09-26T00:55:57.142Z,1002.61
2022-09-26T00:56:57.195Z,1002.59
2022-09-26T00:57:57.103Z,1002.60
2022-09-26T00:58:57.153Z,1002.55
2022-09-26T00:59:57.130Z,1002.55
2022-09-26T01:00:57.356Z,1002.59
2022-09-26T01:01:57.332Z,1002.55
2022-09-26T01:02:57.108Z,1002.52
2022-09-26T01:03:57.038Z,1002.54
2022-09-26T01:04:57.075Z,1002.48
2022-09-26T01:05:57.009Z,1002.49
2022-09-26T01:06:57.034Z,1002.44
2022-09-26T01:07:56.952Z,1002.44
2022-09-26T01:08:57.006Z,1002.44
2022-09-26T01:09:57.074Z,1002.41
2022-09-26T01:10:57.004Z,1002.44
2022-09-26T01:11:57.012Z,1002.36
2022-09-26T01:12:56.894Z,1002.40
2022-09-26T01:13:56.937Z,1002.35
2022-09-26T01:14:56.912Z,1002.37
2022-09-26T01:15:56.912Z,1002.29
2022-09-26T01:16:56.937Z,1002.30
2022-09-26T01:17:56.846Z,1002.27
2022-09-26T01:18:56.845Z,1002.23
2022-09-26T01:19:56.784Z,1002.23
2022-09-26T01:20:57.016Z,1002.22
2022-09-26T01:21:56.875Z,1002.22
2022-09-26T01:22:56.932Z,1002.16
2022-09-26T01:23:56.774Z,1002.13
2022-09-26T01:24:56.778Z,1002.15
2022-09-26T01:25:56.847Z,1002.14
2022-09-26T01:26:56.725Z,1002.14
2022-09-26T01:27:56.816Z,1002.07
2022-09-26T01:28:56.762Z,1002.08
2022-09-26T01:29:56.761Z,1002.01
2022-09-26T01:30:56.791Z,1002.04
2022-09-26T01:31:56.731Z,1002.01
2022-09-26T01:32:56.789Z,1002.02
2022-09-26T01:33:56.707Z,1001.96
2022-09-26T01:34:56.593Z,1001.97
2022-09-26T01:35:56.736Z,1001.95
2022-09-26T01:36:56.663Z,1001.99
2022-09-26T01:37:56.844Z,1001.96
2022-09-26T01:38:56.631Z,1001.98
2022-09-26T01:39:56.547Z,1001.98
2022-09-26T01:40:56.648Z,1001.94
2022-09-26T01:41:56.542Z,1001.96
2022-09-26T01:42:56.603Z,1001.93
2022-09-26T01:43:56.495Z,1001.95
2022-09-26T01:44:56.510Z,1001.90
2022-09-26T01:45:56.799Z,1001.93
2022-09-26T01:46:56.507Z,1001.93
2022-09-26T01:47:56.462Z,1001.96
2022-09-26T01:48:56.578Z,1001.93
2022-09-26T01:49:56.624Z,1001.94
2022-09-26T01:50:56.419Z,1001.94
2022-09-26T01:51:56.402Z,1001.89
2022-09-26T01:52:56.449Z,1001.90
2022-09-26T01:53:56.518Z,1001.88
2022-09-26T01:54:56.447Z,1001.90
2022-09-26T01:55:56.653Z,1001.90
2022-09-26T01:56:56.346Z,1001.83
2022-09-26T01:57:56.408Z,1001.82
2022-09-26T01:58:56.327Z,1001.78
2022-09-26T01:59:56.411Z,1001.77
2022-09-26T02:00:56.318Z,1001.72
2022-09-26T02:01:56.336Z,1001.71
2022-09-26T02:02:56.298Z,1001.68
2022-09-26T02:03:56.359Z,1001.67
2022-09-26T02:04:56.239Z,1001.65
2022-09-26T02:05:56.385Z,1001.62
2022-09-26T02:06:56.208Z,1001.64
2022-09-26T02:07:56.177Z,1001.60
2022-09-26T02:08:56.177Z,1001.55
2022-09-26T02:09:56.093Z,1001.57
2022-09-26T02:10:56.132Z,1001.51
2022-09-26T02:11:56.119Z,1001.57
2022-09-26T02:12:56.075Z,1001.49
2022-09-26T02:13:56.089Z,1001.50
2022-09-26T02:14:56.069Z,1001.48
2022-09-26T02:15:56.176Z,1001.49
2022-09-26T02:16:56.131Z,1001.45
2022-09-26T02:17:56.116Z,1001.39
2022-09-26T02:18:56.021Z,1001.38
2022-09-26T02:19:56.054Z,1001.36
2022-09-26T02:20:56.013Z,1001.35
2022-09-26T02:21:55.986Z,1001.34
2022-09-26T02:22:56.024Z,1001.31
2022-09-26T02:23:56.043Z,1001.30
2022-09-26T02:24:55.952Z,1001.29
2022-09-26T02:25:56.012Z,1001.25
2022-09-26T02:26:56.045Z,1001.26
2022-09-26T02:27:55.870Z,1001.23
2022-09-26T02:28:55.883Z,1001.24
2022-09-26T02:29:55.932Z,1001.26
2022-09-26T02:30:56.002Z,1001.20
2022-09-26T02:31:56.117Z,1001.19
2022-09-26T02:32:55.907Z,1001.16
2022-09-26T02:33:55.836Z,1001.14
2022-09-26T02:34:55.793Z,1001.15
2022-09-26T02:35:55.884Z,1001.12
2022-09-26T02:36:55.800Z,1001.13
2022-09-26T02:37:55.900Z,1001.10
2022-09-26T02:38:55.840Z,1001.06
2022-09-26T02:39:55.816Z,1001.05
2022-09-26T02:40:55.826Z,1001.08
2022-09-26T02:41:55.784Z,1001.01
2022-09-26T02:42:55.898Z,1001.00
2022-09-26T02:43:55.740Z,1000.99
2022-09-26T02:44:55.853Z,1000.95
2022-09-26T02:45:55.810Z,1000.96
2022-09-26T02:46:55.709Z,1000.97
2022-09-26T02:47:55.636Z,1000.92
2022-09-26T02:48:55.616Z,1000.86
2022-09-26T02:49:55.664Z,1000.86
2022-09-26T02:50:55.653Z,1000.82
2022-09-26T02:51:55.608Z,1000.85
2022-09-26T02:52:55.630Z,1000.80
2022-09-26T02:53:55.591Z,1000.82
2022-09-26T02:54:55.624Z,1000.80
2022-09-26T02:55:55.539Z,1000.78
2022-09-26T02:56:55.637Z,1000.75
2022-09-26T02:57:55.603Z,1000.73
2022-09-26T02:58:55.480Z,1000.71
2022-09-26T02:59:55.492Z,1000.65
2022-09-26T03:00:55.605Z,1000.68
2022-09-26T03:01:55.434Z,1000.67
2022-09-26T03:02:55.505Z,1000.60
2022-09-26T03:03:55.481Z,1000.60
2022-09-26T03:04:55.638Z,1000.60
2022-09-26T03:05:55.442Z,1000.62
2022-09-26T03:06:55.450Z,1000.57
2022-09-26T03:07:55.475Z,1000.54
2022-09-26T03:08:55.436Z,1000.55
2022-09-26T03:09:55.374Z,1000.57
2022-09-26T03:10:55.463Z,1000.54
2022-09-26T03:11:55.597Z,1000.51
2022-09-26T03:12:55.336Z,1000.50
2022-09-26T03:13:55.346Z,1000.46
2022-09-26T03:14:58.574Z,1000.50
2022-09-26T03:15:55.336Z,1000.45
2022-09-26T03:16:55.398Z,1000.42
2022-09-26T03:17:55.226Z,1000.44
2022-09-26T03:18:55.245Z,1000.38
2022-09-26T03:19:55.297Z,1000.37
2022-09-26T03:20:55.297Z,1000.32
2022-09-26T03:21:55.246Z,1000.33
2022-09-26T03:22:55.196Z,1000.33
2022-09-26T03:23:55.256Z,1000.30
2022-09-26T03:24:55.206Z,1000.30
2022-09-26T03:25:55.158Z,1000.32
2022-09-26T03:26:55.313Z,1000.27
2022-09-26T03:27:55.210Z,1000.24
2022-09-26T03:28:55.077Z,1000.24
2022-09-26T03:29:55.070Z,1000.21
2022-09-26T03:30:55.184Z,1000.17
2022-09-26T03:31:55.190Z,1000.13
2022-09-26T03:32:55.061Z,1000.11
2022-09-26T03:33:55.073Z,1000.06
2022-09-26T03:34:55.090Z,1000.07
2022-09-26T03:35:55.633Z,999.99
2022-09-26T03:36:54.993Z,1000.06
2022-09-26T03:37:55.014Z,999.99
2022-09-26T03:38:55.116Z,1000.00
2022-09-26T03:39:55.254Z,999.98
2022-09-26T03:40:55.035Z,999.98
2022-09-26T03:41:55.243Z,999.91
2022-09-26T03:42:55.011Z,999.91
2022-09-26T03:43:55.011Z,999.90
2022-09-26T03:44:54.877Z,999.87
2022-09-26T03:45:54.949Z,999.85
2022-09-26T03:46:54.874Z,999.90
2022-09-26T03:47:54.867Z,999.86
2022-09-26T03:48:54.848Z,999.85
2022-09-26T03:49:54.878Z,999.81
2022-09-26T03:50:54.885Z,999.79
2022-09-26T03:51:54.845Z,999.80
2022-09-26T03:52:55.015Z,999.77
2022-09-26T03:53:54.911Z,999.78
2022-09-26T03:54:54.845Z,999.80
2022-09-26T03:55:54.777Z,999.75
2022-09-26T03:56:54.903Z,999.70
2022-09-26T03:57:54.800Z,999.72
2022-09-26T03:58:54.760Z,999.70
2022-09-26T03:59:54.732Z,999.68
2022-09-26T04:00:54.757Z,999.64
2022-09-26T04:01:54.753Z,999.69
2022-09-26T04:02:54.700Z,999.60
2022-09-26T04:03:54.709Z,999.54
2022-09-26T04:04:54.759Z,999.59
2022-09-26T04:05:54.622Z,999.53
2022-09-26T04:06:54.657Z,999.45
2022-09-26T04:07:54.671Z,999.47
2022-09-26T04:08:57.336Z,999.44
2022-09-26T04:09:55.643Z,999.48
2022-09-26T04:10:54.641Z,999.45
2022-09-26T04:11:54.597Z,999.49
2022-09-26T04:12:54.661Z,999.44
2022-09-26T04:13:54.755Z,999.41
2022-09-26T04:14:54.524Z,999.39
2022-09-26T04:15:54.575Z,999.36
2022-09-26T04:16:54.458Z,999.37
2022-09-26T04:17:54.491Z,999.38
2022-09-26T04:18:54.493Z,999.38
2022-09-26T04:19:54.477Z,999.35
2022-09-26T04:20:54.402Z,999.35
2022-09-26T04:21:54.502Z,999.27
2022-09-26T04:22:54.395Z,999.26
2022-09-26T04:23:54.394Z,999.28
2022-09-26T04:24:54.482Z,999.25
2022-09-26T04:25:54.488Z,999.24
2022-09-26T04:26:54.326Z,999.20
2022-09-26T04:27:54.392Z,999.15
2022-09-26T04:28:54.352Z,999.16
2022-09-26T04:29:54.429Z,999.14
2022-09-26T04:30:54.796Z,999.15
2022-09-26T04:31:54.437Z,999.12
2022-09-26T04:32:54.507Z,999.08
2022-09-26T04:33:54.269Z,999.11
2022-09-26T04:34:54.368Z,999.08
2022-09-26T04:35:54.345Z,999.08
2022-09-26T04:36:54.231Z,999.05
2022-09-26T04:37:54.255Z,999.00
2022-09-26T04:38:54.201Z,999.00
2022-09-26T04:39:54.291Z,999.00
2022-09-26T04:40:54.287Z,999.01
2022-09-26T04:41:54.160Z,998.99
2022-09-26T04:42:54.155Z,998.91
2022-09-26T04:43:54.388Z,998.93
2022-09-26T04:44:54.207Z,998.94
2022-09-26T04:45:55.917Z,998.88
2022-09-26T04:46:54.251Z,998.91
2022-09-26T04:47:54.119Z,998.83
2022-09-26T04:48:54.222Z,998.87
2022-09-26T04:49:54.141Z,998.85
2022-09-26T04:50:54.299Z,998.84
2022-09-26T04:51:54.192Z,998.80
2022-09-26T04:52:54.036Z,998.78
2022-09-26T04:53:54.100Z,998.72
2022-09-26T04:54:53.966Z,998.76
2022-09-26T04:55:54.013Z,998.78
2022-09-26T04:56:54.039Z,998.76
2022-09-26T04:57:54.030Z,998.74
2022-09-26T04:58:53.932Z,998.72
2022-09-26T04:59:53.884Z,998.73
2022-09-26T05:00:53.946Z,998.78
2022-09-26T05:01:54.015Z,998.74
2022-09-26T05:02:53.909Z,998.72
2022-09-26T05:03:53.821Z,998.69
2022-09-26T05:04:53.918Z,998.67
2022-09-26T05:05:53.836Z,998.71
2022-09-26T05:06:53.826Z,998.68
2022-09-26T05:07:53.845Z,998.69
2022-09-26T05:08:53.874Z,998.68
2022-09-26T05:09:58.563Z,998.66
2022-09-26T05:10:53.745Z,998.65
2022-09-26T05:11:53.847Z,998.63
2022-09-26T05:12:53.815Z,998.62
2022-09-26T05:13:54.199Z,998.61
2022-09-26T05:14:53.698Z,998.56
2022-09-26T05:15:53.730Z,998.55
2022-09-26T05:16:53.812Z,998.58
2022-09-26T05:17:53.647Z,998.53
2022-09-26T05:18:53.801Z,998.51
2022-09-26T05:19:53.661Z,998.50
2022-09-26T05:20:53.637Z,998.43
2022-09-26T05:21:53.671Z,998.51
2022-09-26T05:22:53.735Z,998.43
2022-09-26T05:23:53.725Z,998.43
2022-09-26T05:24:53.697Z,998.44
2022-09-26T05:25:53.582Z,998.41
2022-09-26T05:26:53.612Z,998.37
2022-09-26T05:27:53.595Z,998.38
2022-09-26T05:28:53.561Z,998.40
2022-09-26T05:29:53.507Z,998.38
2022-09-26T05:30:53.533Z,998.39
2022-09-26T05:31:53.591Z,998.37
2022-09-26T05:32:53.502Z,998.41
2022-09-26T05:33:53.544Z,998.37
2022-09-26T05:34:53.416Z,998.37
2022-09-26T05:35:53.450Z,998.32
2022-09-26T05:36:53.490Z,998.33
2022-09-26T05:37:53.487Z,998.30
2022-09-26T05:38:53.514Z,998.31
2022-09-26T05:39:53.473Z,998.29
2022-09-26T05:40:53.502Z,998.29
2022-09-26T05:41:53.335Z,998.30
2022-09-26T05:42:53.387Z,998.28
2022-09-26T05:43:53.361Z,998.28
2022-09-26T05:44:53.354Z,998.24
2022-09-26T05:45:53.282Z,998.22
2022-09-26T05:46:53.462Z,998.18
2022-09-26T05:47:53.265Z,998.21
2022-09-26T05:48:53.473Z,998.18
2022-09-26T05:49:53.237Z,998.22
2022-09-26T05:50:53.214Z,998.23
2022-09-26T05:51:53.186Z,998.20
2022-09-26T05:52:53.161Z,998.21
2022-09-26T05:53:53.142Z,998.21
2022-09-26T05:54:53.101Z,998.18
2022-09-26T05:55:53.161Z,998.17
2022-09-26T05:56:53.073Z,998.23
2022-09-26T05:57:53.148Z,998.18
2022-09-26T05:58:53.040Z,998.19
2022-09-26T05:59:53.084Z,998.18
2022-09-26T06:00:53.230Z,998.21
2022-09-26T06:01:53.304Z,998.17
2022-09-26T06:02:53.296Z,998.13
2022-09-26T06:03:53.453Z,998.19
2022-09-26T06:04:53.152Z,998.10
2022-09-26T06:05:53.190Z,998.16
2022-09-26T06:06:53.129Z,998.16
2022-09-26T06:07:53.059Z,998.13
2022-09-26T06:08:53.231Z,998.10
2022-09-26T06:09:53.010Z,998.09
2022-09-26T06:10:53.031Z,998.06
2022-09-26T06:11:52.930Z,998.02
2022-09-26T06:12:53.137Z,998.05
2022-09-26T06:13:52.933Z,998.03
2022-09-26T06:14:52.906Z,998.07
2022-09-26T06:15:52.999Z,997.99
2022-09-26T06:16:53.041Z,997.99
2022-09-26T06:17:52.913Z,997.97
2022-09-26T06:18:52.869Z,997.93
2022-09-26T06:19:52.942Z,997.94
2022-09-26T06:20:52.963Z,997.87
2022-09-26T06:21:52.875Z,997.85
2022-09-26T06:22:52.916Z,997.83
2022-09-26T06:23:52.811Z,997.81
2022-09-26T06:24:52.786Z,997.80
2022-09-26T06:25:52.710Z,997.80
2022-09-26T06:26:52.682Z,997.84
2022-09-26T06:27:57.618Z,997.76
2022-09-26T06:28:53.757Z,997.80
2022-09-26T06:29:52.691Z,997.73
2022-09-26T06:30:52.848Z,997.72
2022-09-26T06:31:52.724Z,997.71
2022-09-26T06:32:52.788Z,997.73
2022-09-26T06:33:53.139Z,997.67
2022-09-26T06:34:52.834Z,997.66
2022-09-26T06:35:52.940Z,997.69
2022-09-26T06:36:52.580Z,997.64
2022-09-26T06:37:52.569Z,997.61
2022-09-26T06:38:52.608Z,997.66
2022-09-26T06:39:57.000Z,997.61
2022-09-26T06:40:53.797Z,997.59
2022-09-26T06:41:52.656Z,997.56
2022-09-26T06:42:52.498Z,997.58
2022-09-26T06:43:52.608Z,997.53
2022-09-26T06:44:52.832Z,997.56
2022-09-26T06:45:52.564Z,997.54
2022-09-26T06:46:52.535Z,997.48
2022-09-26T06:47:52.567Z,997.45
2022-09-26T06:48:52.820Z,997.45
2022-09-26T06:49:52.559Z,997.44
2022-09-26T06:50:52.479Z,997.43
2022-09-26T06:51:52.545Z,997.41
2022-09-26T06:52:52.399Z,997.40
2022-09-26T06:53:52.474Z,997.37
2022-09-26T06:54:52.446Z,997.41
2022-09-26T06:55:52.511Z,997.32
2022-09-26T06:56:52.336Z,997.28
2022-09-26T06:57:52.466Z,997.30
2022-09-26T06:58:52.391Z,997.23
2022-09-26T06:59:52.401Z,997.21
2022-09-26T07:00:52.389Z,997.22
2022-09-26T07:01:52.461Z,997.17
2022-09-26T07:02:52.286Z,997.17
2022-09-26T07:03:54.470Z,997.17
2022-09-26T07:04:52.287Z,997.16
2022-09-26T07:05:52.308Z,997.13
2022-09-26T07:06:52.259Z,997.11
2022-09-26T07:07:52.279Z,997.09
2022-09-26T07:09:02.074Z,997.02
2022-09-26T07:09:53.301Z,997.12
2022-09-26T07:10:52.204Z,997.12
2022-09-26T07:12:13.571Z,997.07
2022-09-26T07:12:53.474Z,997.06
2022-09-26T07:13:52.205Z,997.05
2022-09-26T07:14:53.819Z,997.03
2022-09-26T07:15:52.302Z,997.02
2022-09-26T07:16:52.189Z,997.04
2022-09-26T07:17:52.071Z,997.01
2022-09-26T07:18:52.291Z,997.02
2022-09-26T07:19:52.138Z,997.00
2022-09-26T07:20:56.470Z,996.96
2022-09-26T07:21:52.105Z,996.96
2022-09-26T07:22:51.977Z,996.98
2022-09-26T07:23:52.163Z,996.93
2022-09-26T07:24:52.052Z,996.94
2022-09-26T07:25:52.242Z,996.95
2022-09-26T07:26:51.935Z,996.97
2022-09-26T07:27:51.967Z,996.93
2022-09-26T07:28:54.742Z,996.94
2022-09-26T07:29:51.958Z,996.94
2022-09-26T07:30:51.997Z,996.92
2022-09-26T07:31:51.988Z,996.87
2022-09-26T07:32:51.911Z,996.92
2022-09-26T07:33:51.879Z,996.86
2022-09-26T07:34:51.834Z,996.84
2022-09-26T07:35:51.954Z,996.84
2022-09-26T07:36:51.878Z,996.82
2022-09-26T07:37:51.825Z,996.80
2022-09-26T07:38:51.815Z,996.83
2022-09-26T07:39:54.732Z,996.81
2022-09-26T07:40:51.819Z,996.83
2022-09-26T07:41:51.743Z,996.76
2022-09-26T07:43:15.201Z,996.77
2022-09-26T07:44:45.968Z,996.77
2022-09-26T07:45:21.025Z,996.74
2022-09-26T07:45:52.671Z,996.69
2022-09-26T07:46:51.776Z,996.69
2022-09-26T07:47:51.794Z,996.71
2022-09-26T07:48:51.808Z,996.68
2022-09-26T07:49:51.674Z,996.70
2022-09-26T07:50:51.685Z,996.70
2022-09-26T07:51:51.666Z,996.64
2022-09-26T07:52:51.648Z,996.64
2022-09-26T07:53:51.665Z,996.60
2022-09-26T07:54:51.592Z,996.62
2022-09-26T07:55:51.663Z,996.66
2022-09-26T07:56:51.600Z,996.62
2022-09-26T07:57:51.528Z,996.62
2022-09-26T07:58:51.681Z,996.62
2022-09-26T07:59:51.761Z,996.61
2022-09-26T08:00:51.592Z,996.60
2022-09-26T08:01:51.479Z,996.55
2022-09-26T08:02:51.555Z,996.59
2022-09-26T08:03:51.480Z,996.57
2022-09-26T08:04:51.460Z,996.59
2022-09-26T08:05:51.564Z,996.57
2022-09-26T08:06:51.424Z,996.59
2022-09-26T08:07:51.596Z,996.56
2022-09-26T08:08:51.546Z,996.59
2022-09-26T08:09:51.404Z,996.58
2022-09-26T08:10:51.339Z,996.56
2022-09-26T08:11:51.384Z,996.49
2022-09-26T08:12:51.372Z,996.51
2022-09-26T08:13:51.340Z,996.47
2022-09-26T08:14:51.522Z,996.50
2022-09-26T08:15:51.377Z,996.47
2022-09-26T08:16:51.310Z,996.49
2022-09-26T08:17:51.367Z,996.45
2022-09-26T08:18:51.422Z,996.49
2022-09-26T08:19:51.290Z,996.45
2022-09-26T08:20:51.256Z,996.46
2022-09-26T08:21:51.297Z,996.51
2022-09-26T08:22:51.219Z,996.48
2022-09-26T08:23:51.215Z,996.46
2022-09-26T08:24:51.213Z,996.43
2022-09-26T08:25:51.208Z,996.40
2022-09-26T08:26:51.176Z,996.37
2022-09-26T08:27:51.135Z,996.42
2022-09-26T08:28:51.190Z,996.35
2022-09-26T08:29:51.134Z,996.30
2022-09-26T08:30:51.197Z,996.30
2022-09-26T08:31:51.125Z,996.31
2022-09-26T08:32:51.078Z,996.23
2022-09-26T08:33:51.029Z,996.33
2022-09-26T08:34:51.078Z,996.33
2022-09-26T08:35:51.146Z,996.29
2022-09-26T08:36:51.130Z,996.32
2022-09-26T08:37:50.977Z,996.29
2022-09-26T08:38:51.204Z,996.37
2022-09-26T08:39:50.967Z,996.43
2022-09-26T08:40:51.154Z,996.42
2022-09-26T08:41:50.951Z,996.41
2022-09-26T08:42:50.929Z,996.43
2022-09-26T08:43:50.899Z,996.42
2022-09-26T08:44:51.079Z,996.43
2022-09-26T08:45:51.091Z,996.36
2022-09-26T08:46:51.065Z,996.41
2022-09-26T08:47:50.951Z,996.38
2022-09-26T08:48:50.932Z,996.42
2022-09-26T08:49:50.854Z,996.38
2022-09-26T08:50:50.910Z,996.34
2022-09-26T08:51:50.855Z,996.33
2022-09-26T08:52:50.785Z,996.34
2022-09-26T08:53:50.976Z,996.35
2022-09-26T08:54:50.813Z,996.35
2022-09-26T08:55:50.766Z,996.36
2022-09-26T08:56:50.743Z,996.36
2022-09-26T08:57:50.916Z,996.35
2022-09-26T08:58:50.717Z,996.33
2022-09-26T08:59:50.792Z,996.28
2022-09-26T09:00:50.801Z,996.27
2022-09-26T09:01:50.785Z,996.27
2022-09-26T09:02:50.716Z,996.23
2022-09-26T09:03:50.736Z,996.21
2022-09-26T09:04:53.951Z,996.20
2022-09-26T09:05:50.649Z,996.19
2022-09-26T09:06:50.742Z,996.19
2022-09-26T09:07:50.639Z,996.17
2022-09-26T09:08:50.700Z,996.21
2022-09-26T09:09:50.661Z,996.12
2022-09-26T09:10:50.764Z,996.20
2022-09-26T09:11:51.353Z,996.14
2022-09-26T09:12:50.592Z,996.21
2022-09-26T09:13:50.639Z,996.23
2022-09-26T09:15:07.676Z,996.17
2022-09-26T09:15:51.564Z,996.24
2022-09-26T09:16:50.453Z,996.25
2022-09-26T09:17:50.571Z,996.21
2022-09-26T09:18:50.528Z,996.22
2022-09-26T09:19:50.454Z,996.21
2022-09-26T09:20:50.833Z,996.12
2022-09-26T09:21:50.487Z,996.12
2022-09-26T09:22:50.431Z,996.12
2022-09-26T09:23:50.421Z,996.17
2022-09-26T09:24:50.409Z,996.09
2022-09-26T09:25:50.647Z,996.14
2022-09-26T09:27:53.174Z,996.10
2022-09-26T09:28:50.400Z,996.10
2022-09-26T09:29:50.320Z,996.05
2022-09-26T09:30:50.421Z,996.07
2022-09-26T09:31:50.427Z,996.08
2022-09-26T09:32:50.325Z,996.00
2022-09-26T09:33:50.372Z,996.00
2022-09-26T09:34:53.642Z,995.99
2022-09-26T09:35:50.262Z,995.98
2022-09-26T09:36:50.420Z,995.95
2022-09-26T09:37:50.254Z,995.99
2022-09-26T09:38:50.298Z,995.93
2022-09-26T09:39:50.215Z,995.94
2022-09-26T09:40:50.248Z,995.96
2022-09-26T09:41:50.200Z,995.89
2022-09-26T09:42:50.104Z,995.87
2022-09-26T09:43:50.094Z,995.84
2022-09-26T09:44:50.111Z,995.85
2022-09-26T09:45:50.190Z,995.83
2022-09-26T09:46:50.248Z,995.82
2022-09-26T09:47:50.102Z,995.87
2022-09-26T09:48:50.391Z,995.88
2022-09-26T09:49:50.228Z,995.92
2022-09-26T09:50:50.141Z,995.89
2022-09-26T09:51:50.001Z,995.91
2022-09-26T09:52:50.091Z,995.84
2022-09-26T09:53:50.050Z,995.78
2022-09-26T09:54:50.098Z,995.81
2022-09-26T09:55:49.965Z,995.77
2022-09-26T09:56:49.940Z,995.69
2022-09-26T09:57:49.999Z,995.68
2022-09-26T09:58:50.055Z,995.62
2022-09-26T09:59:49.984Z,995.65
2022-09-26T10:00:51.376Z,995.62
2022-09-26T10:01:49.889Z,995.61
2022-09-26T10:02:50.017Z,995.60
2022-09-26T10:03:49.902Z,995.60
2022-09-26T10:04:49.855Z,995.62
2022-09-26T10:05:49.887Z,995.55
2022-09-26T10:06:49.777Z,995.54
2022-09-26T10:07:49.847Z,995.52
2022-09-26T10:08:49.840Z,995.53
2022-09-26T10:09:49.869Z,995.51
2022-09-26T10:10:49.888Z,995.46
2022-09-26T10:11:52.616Z,995.40
2022-09-26T10:12:49.779Z,995.44
2022-09-26T10:13:49.782Z,995.38
2022-09-26T10:14:49.773Z,995.38
2022-09-26T10:15:49.725Z,995.32
2022-09-26T10:16:49.753Z,995.36
2022-09-26T10:18:12.743Z,995.32
2022-09-26T10:18:50.683Z,995.21
2022-09-26T10:19:49.656Z,995.22
2022-09-26T10:20:49.749Z,995.25
2022-09-26T10:21:49.773Z,995.23
2022-09-26T10:22:49.628Z,995.20
2022-09-26T10:23:49.673Z,995.13
2022-09-26T10:24:49.705Z,995.10
2022-09-26T10:25:49.636Z,995.06
2022-09-26T10:26:49.767Z,995.01
2022-09-26T10:27:49.588Z,994.96
2022-09-26T10:28:49.509Z,994.98
2022-09-26T10:29:49.544Z,994.99
2022-09-26T10:30:49.660Z,994.93
2022-09-26T10:31:49.519Z,994.89
2022-09-26T10:32:54.038Z,994.87
2022-09-26T10:33:50.488Z,994.90
2022-09-26T10:34:49.641Z,994.83
2022-09-26T10:35:49.783Z,994.80
2022-09-26T10:36:49.578Z,994.87
2022-09-26T10:37:49.523Z,994.80
2022-09-26T10:38:49.395Z,994.72
2022-09-26T10:39:49.517Z,994.77
2022-09-26T10:40:49.907Z,994.70
2022-09-26T10:41:53.091Z,994.68
2022-09-26T10:42:50.659Z,994.67
2022-09-26T10:43:49.607Z,994.61
2022-09-26T10:44:52.894Z,994.66
2022-09-26T10:45:49.701Z,994.66
2022-09-26T10:46:49.334Z,994.73
2022-09-26T10:47:49.431Z,994.70
2022-09-26T10:48:49.355Z,994.74
2022-09-26T10:49:49.263Z,994.85
2022-09-26T10:50:49.238Z,994.81
2022-09-26T10:51:49.225Z,994.81
2022-09-26T10:52:49.221Z,994.75
2022-09-26T10:53:49.563Z,994.81
2022-09-26T10:54:50.429Z,994.86
2022-09-26T10:55:49.460Z,994.77
2022-09-26T10:56:49.290Z,994.81
2022-09-26T10:57:49.325Z,994.69
2022-09-26T10:58:49.189Z,994.71
2022-09-26T10:59:49.115Z,994.70
2022-09-26T11:00:49.403Z,994.74
2022-09-26T11:01:49.206Z,994.72
2022-09-26T11:02:49.115Z,994.72
2022-09-26T11:03:49.269Z,994.71
2022-09-26T11:04:49.180Z,994.72
2022-09-26T11:05:49.137Z,994.76
2022-09-26T11:06:49.150Z,994.79
2022-09-26T11:07:49.076Z,994.72
2022-09-26T11:08:48.975Z,994.71
2022-09-26T11:09:48.984Z,994.64
2022-09-26T11:10:49.045Z,994.64
2022-09-26T11:11:49.064Z,994.62
2022-09-26T11:12:48.974Z,994.57
2022-09-26T11:13:48.957Z,994.62
2022-09-26T11:14:49.034Z,994.59
2022-09-26T11:15:49.115Z,994.54
2022-09-26T11:16:49.056Z,994.51
2022-09-26T11:17:48.981Z,994.54
2022-09-26T11:18:48.854Z,994.54
2022-09-26T11:19:53.791Z,994.50
2022-09-26T11:20:49.866Z,994.54
2022-09-26T11:21:48.821Z,994.53
2022-09-26T11:22:48.908Z,994.45
2022-09-26T11:23:48.912Z,994.51
2022-09-26T11:24:49.629Z,994.50
2022-09-26T11:25:48.920Z,994.43
2022-09-26T11:26:48.881Z,994.40
2022-09-26T11:27:49.119Z,994.41
2022-09-26T11:28:48.913Z,994.40
2022-09-26T11:29:48.978Z,994.39
2022-09-26T11:30:49.049Z,994.33
2022-09-26T11:31:48.759Z,994.35
2022-09-26T11:32:48.824Z,994.37
2022-09-26T11:33:48.737Z,994.29
2022-09-26T11:34:49.106Z,994.25
2022-09-26T11:35:48.741Z,994.25
2022-09-26T11:36:49.026Z,994.27
2022-09-26T11:37:48.730Z,994.19
2022-09-26T11:38:48.753Z,994.20
2022-09-26T11:39:48.572Z,994.14
2022-09-26T11:40:48.931Z,994.18
2022-09-26T11:41:49.360Z,994.14
2022-09-26T11:42:48.611Z,994.09
2022-09-26T11:43:48.567Z,994.02
2022-09-26T11:44:48.705Z,994.06
2022-09-26T11:45:48.744Z,994.02
2022-09-26T11:46:48.678Z,993.96
2022-09-26T11:47:49.053Z,993.98
2022-09-26T11:48:48.598Z,993.91
2022-09-26T11:49:48.727Z,993.91
2022-09-26T11:50:48.509Z,993.90
2022-09-26T11:51:48.446Z,993.85
2022-09-26T11:52:49.513Z,993.74
2022-09-26T11:53:48.429Z,993.79
2022-09-26T11:54:48.492Z,993.76
2022-09-26T11:55:48.577Z,993.74
2022-09-26T11:56:49.003Z,993.80
2022-09-26T11:57:48.693Z,993.76
2022-09-26T11:58:48.499Z,993.75
2022-09-26T11:59:48.813Z,993.79
2022-09-26T12:00:48.622Z,993.76
2022-09-26T12:01:48.492Z,993.73
2022-09-26T12:02:48.856Z,993.72
2022-09-26T12:03:48.823Z,993.70
2022-09-26T12:04:48.264Z,993.65
2022-09-26T12:05:48.319Z,993.64
2022-09-26T12:06:48.388Z,993.61
2022-09-26T12:07:48.537Z,993.51
2022-09-26T12:08:48.289Z,993.61
2022-09-26T12:09:48.504Z,993.54
2022-09-26T12:10:48.255Z,993.48
2022-09-26T12:11:48.214Z,993.51
2022-09-26T12:12:48.370Z,993.53
2022-09-26T12:13:48.656Z,993.49
2022-09-26T12:14:48.691Z,993.48
2022-09-26T12:15:48.319Z,993.51
2022-09-26T12:16:48.106Z,993.46
2022-09-26T12:17:48.123Z,993.45
2022-09-26T12:18:48.267Z,993.47
2022-09-26T12:19:48.294Z,993.42
2022-09-26T12:20:48.765Z,993.41
2022-09-26T12:21:48.155Z,993.44
2022-09-26T12:22:48.172Z,993.43